Time;durP1;ratioP1;P1;durP2;ratioP2;P2;SDS_P1;SDS_P2;PMS_P1;PMS_P2;Temp;Humidity;BMP_temperature;BMP_pressure;BME280_temperature;BME280_humidity;BME280_pressure;Samples;Min_cycle;Max_cycle;Signal;HPM_P1;HPM_P2
2021/06/17 00:02:09;;;;;;;;;;;13.40;99.60;;;;;;5073763;28;19995;-70
2021/06/17 00:04:36;;;;;;;;;;;13.40;99.90;;;;;;5072576;28;19995;-71
2021/06/17 00:07:03;;;;;;;;;;;13.40;99.40;;;;;;5073589;28;19962;-70
2021/06/17 00:09:30;;;;;;;;;;;13.40;99.50;;;;;;5073693;28;19916;-71
2021/06/17 00:12:00;;;;;;;;;;;13.40;99.00;;;;;;5073428;28;19912;-72
2021/06/17 00:14:28;;;;;;;;;;;13.40;98.70;;;;;;5073814;28;20404;-70
2021/06/17 00:16:55;;;;;;;;;;;13.40;98.70;;;;;;5073709;28;19947;-70
2021/06/17 00:19:23;;;;;;;;;;;13.40;98.80;;;;;;5073345;28;20231;-70
2021/06/17 00:21:50;;;;;;;;;;;13.50;99.10;;;;;;5077445;28;20482;-71
2021/06/17 00:24:19;;;;;;;;;;;13.50;98.40;;;;;;5085851;28;19919;-71
2021/06/17 00:26:47;;;;;;;;;;;13.50;98.50;;;;;;5091983;28;19908;-70
2021/06/17 00:29:14;;;;;;;;;;;13.60;99.00;;;;;;5094216;28;20018;-70
2021/06/17 00:31:40;;;;;;;;;;;13.60;99.60;;;;;;5094523;28;20004;-70
2021/06/17 00:34:10;;;;;;;;;;;13.70;99.00;;;;;;5093774;28;20357;-70
2021/06/17 00:36:37;;;;;;;;;;;13.70;98.90;;;;;;5093683;28;20372;-69
2021/06/17 00:39:04;;;;;;;;;;;13.80;98.50;;;;;;5086154;28;19987;-70
2021/06/17 00:41:32;;;;;;;;;;;13.80;98.10;;;;;;5084517;28;19916;-70
2021/06/17 00:43:58;;;;;;;;;;;13.80;98.70;;;;;;5091536;28;19912;-69
2021/06/17 00:46:25;;;;;;;;;;;13.80;98.10;;;;;;5091318;28;19943;-70
2021/06/17 00:48:52;;;;;;;;;;;13.90;97.80;;;;;;5091288;28;19912;-70
2021/06/17 00:51:18;;;;;;;;;;;13.90;98.10;;;;;;5091332;28;19908;-71
2021/06/17 00:53:45;;;;;;;;;;;13.90;98.50;;;;;;5091314;28;19950;-71
2021/06/17 00:56:12;;;;;;;;;;;14.00;97.80;;;;;;5091260;28;19916;-71
2021/06/17 00:58:38;;;;;;;;;;;14.10;97.40;;;;;;5090587;28;19934;-69
2021/06/17 01:01:05;;;;;;;;;;;14.30;97.20;;;;;;5092046;28;19999;-70
2021/06/17 01:03:32;;;;;;;;;;;14.40;96.50;;;;;;5092877;28;19998;-70
2021/06/17 01:05:59;;;;;;;;;;;14.90;97.00;;;;;;5093183;28;19931;-70
2021/06/17 01:08:40;;;;;;;;;;;15.60;94.50;;;;;;5093012;28;20016;-70
2021/06/17 01:11:14;;;;;;;;;;;15.70;93.80;;;;;;5093087;28;20382;-70
2021/06/17 01:13:43;;;;;;;;;;;15.60;93.80;;;;;;5092814;28;20412;-70
2021/06/17 01:16:10;;;;;;;;;;;15.70;92.90;;;;;;5093021;28;19908;-71
2021/06/17 01:18:43;;;;;;;;;;;15.80;92.20;;;;;;5093162;28;19912;-69
2021/06/17 01:21:28;;;;;;;;;;;15.80;93.30;;;;;;5092884;28;19915;-71
2021/06/17 01:24:04;;;;;;;;;;;16.00;90.90;;;;;;5093093;28;20000;-71
2021/06/17 01:26:49;;;;;;;;;;;15.70;91.30;;;;;;5092918;28;19912;-71
2021/06/17 01:29:18;;;;;;;;;;;15.40;90.90;;;;;;5092788;28;19965;-70
2021/06/17 01:31:44;;;;;;;;;;;15.40;91.50;;;;;;5092930;28;19912;-70
2021/06/17 01:34:12;;;;;;;;;;;15.30;91.40;;;;;;5092919;28;19912;-70
2021/06/17 01:36:40;;;;;;;;;;;15.20;91.30;;;;;;5093041;28;19932;-70
2021/06/17 01:39:09;;;;;;;;;;;15.20;91.00;;;;;;5092785;28;19915;-69
2021/06/17 01:41:38;;;;;;;;;;;15.10;89.20;;;;;;5092708;28;20420;-69
2021/06/17 01:44:06;;;;;;;;;;;15.00;90.20;;;;;;5092963;28;20359;-69
2021/06/17 01:46:33;;;;;;;;;;;15.00;89.80;;;;;;5092894;28;19908;-70
2021/06/17 01:49:00;;;;;;;;;;;14.90;90.00;;;;;;5092631;28;19912;-70
2021/06/17 01:51:27;;;;;;;;;;;14.80;90.30;;;;;;5092707;28;19915;-69
2021/06/17 01:53:54;;;;;;;;;;;14.90;90.20;;;;;;5092571;28;20354;-70
2021/06/17 01:56:22;;;;;;;;;;;14.90;91.30;;;;;;5092551;28;19912;-70
2021/06/17 01:58:53;;;;;;;;;;;14.90;89.10;;;;;;5092424;28;19995;-69
2021/06/17 02:01:21;;;;;;;;;;;14.90;89.20;;;;;;5091157;28;19908;-70
2021/06/17 02:03:48;;;;;;;;;;;14.90;88.00;;;;;;5092428;28;20274;-70
2021/06/17 02:06:15;;;;;;;;;;;14.90;88.20;;;;;;5092483;28;19912;-69
2021/06/17 02:08:51;;;;;;;;;;;14.90;90.80;;;;;;5091286;28;20358;-69
2021/06/17 02:11:18;;;;;;;;;;;14.90;90.50;;;;;;5095984;28;19919;-69
2021/06/17 02:13:45;;;;;;;;;;;15.00;91.20;;;;;;5095805;28;19927;-69
2021/06/17 02:16:13;;;;;;;;;;;15.00;90.40;;;;;;5096194;28;20319;-69
2021/06/17 02:18:41;;;;;;;;;;;15.10;90.30;;;;;;5096176;28;19912;-69
2021/06/17 02:21:08;;;;;;;;;;;15.10;90.80;;;;;;5095907;28;20056;-69
2021/06/17 02:23:36;;;;;;;;;;;15.10;88.40;;;;;;5095822;28;20293;-69
2021/06/17 02:26:07;;;;;;;;;;;15.20;89.30;;;;;;5096234;28;19908;-68
2021/06/17 02:28:40;;;;;;;;;;;15.30;87.80;;;;;;5095840;28;19916;-70
2021/06/17 02:31:10;;;;;;;;;;;15.10;86.70;;;;;;5095436;28;19916;-69
2021/06/17 02:33:37;;;;;;;;;;;15.20;87.70;;;;;;5095403;28;20274;-70
2021/06/17 02:36:04;;;;;;;;;;;15.10;88.30;;;;;;5094529;28;20466;-70
2021/06/17 02:38:33;;;;;;;;;;;15.10;86.70;;;;;;5095748;28;19999;-70
2021/06/17 02:41:04;;;;;;;;;;;15.10;87.90;;;;;;5095571;28;19908;-70
2021/06/17 02:43:34;;;;;;;;;;;15.20;86.20;;;;;;5095797;28;20403;-70
2021/06/17 02:46:01;;;;;;;;;;;15.10;87.10;;;;;;5095661;28;19912;-70
2021/06/17 02:48:28;;;;;;;;;;;15.10;84.30;;;;;;5095722;28;19908;-70
2021/06/17 02:50:55;;;;;;;;;;;15.20;86.80;;;;;;5095519;28;20094;-69
2021/06/17 02:53:22;;;;;;;;;;;15.10;87.30;;;;;;5095409;28;19934;-69
2021/06/17 02:55:49;;;;;;;;;;;15.10;85.20;;;;;;5095045;28;19908;-71
2021/06/17 02:58:34;;;;;;;;;;;15.20;87.30;;;;;;5094065;28;20325;-71
2021/06/17 03:01:15;;;;;;;;;;;15.40;86.70;;;;;;5095353;28;19912;-70
2021/06/17 03:03:52;;;;;;;;;;;15.40;85.00;;;;;;5094592;28;19915;-69
2021/06/17 03:06:21;;;;;;;;;;;15.50;85.90;;;;;;5095122;28;20398;-70
2021/06/17 03:08:51;;;;;;;;;;;15.40;84.70;;;;;;5095033;28;19998;-69
2021/06/17 03:11:18;;;;;;;;;;;15.40;87.20;;;;;;5094755;28;19919;-70
2021/06/17 03:13:47;;;;;;;;;;;15.40;89.80;;;;;;5094800;28;20003;-71
2021/06/17 03:16:17;;;;;;;;;;;15.40;86.50;;;;;;5095105;28;19909;-71
2021/06/17 03:18:44;;;;;;;;;;;15.50;85.40;;;;;;5094837;28;19908;-71
2021/06/17 03:21:11;;;;;;;;;;;15.40;86.30;;;;;;5094267;28;19908;-70
2021/06/17 03:23:39;;;;;;;;;;;15.50;88.40;;;;;;5094609;28;19994;-70
2021/06/17 03:26:08;;;;;;;;;;;15.50;86.00;;;;;;5094772;28;20393;-70
2021/06/17 03:28:35;;;;;;;;;;;15.50;86.00;;;;;;5094757;28;19953;-69
2021/06/17 03:31:03;;;;;;;;;;;15.50;86.80;;;;;;5094723;28;20426;-69
2021/06/17 03:33:34;;;;;;;;;;;15.60;84.00;;;;;;5094497;28;20308;-69
2021/06/17 03:36:01;;;;;;;;;;;15.60;84.70;;;;;;5094701;28;19908;-70
2021/06/17 03:38:28;;;;;;;;;;;15.60;84.20;;;;;;5094704;28;20317;-70
2021/06/17 03:40:56;;;;;;;;;;;15.50;84.20;;;;;;5094394;28;20051;-70
2021/06/17 03:43:24;;;;;;;;;;;15.40;85.00;;;;;;5094537;28;20476;-71
2021/06/17 03:45:51;;;;;;;;;;;15.40;85.40;;;;;;5094461;28;20044;-69
2021/06/17 03:48:18;;;;;;;;;;;15.40;85.00;;;;;;5094454;28;19909;-69
2021/06/17 03:50:46;;;;;;;;;;;15.40;84.00;;;;;;5094328;28;19939;-69
2021/06/17 03:53:13;;;;;;;;;;;15.40;84.80;;;;;;5094450;28;19931;-69
2021/06/17 03:55:43;;;;;;;;;;;15.50;85.10;;;;;;5094173;28;20263;-69
2021/06/17 03:58:09;;;;;;;;;;;15.50;84.30;;;;;;5094297;28;19912;-69
2021/06/17 04:00:36;;;;;;;;;;;15.60;86.50;;;;;;5094299;28;19951;-70
2021/06/17 04:03:09;;;;;;;;;;;15.60;86.20;;;;;;5094265;28;19991;-70
2021/06/17 04:05:36;;;;;;;;;;;15.60;85.70;;;;;;5094292;28;19908;-69
2021/06/17 04:08:08;;;;;;;;;;;15.50;84.50;;;;;;5094406;28;19987;-70
2021/06/17 04:10:34;;;;;;;;;;;15.50;86.50;;;;;;5094204;28;20259;-69
2021/06/17 04:13:01;;;;;;;;;;;15.50;84.50;;;;;;5094072;28;19924;-70
2021/06/17 04:15:29;;;;;;;;;;;15.50;85.60;;;;;;5094326;28;19908;-69
2021/06/17 04:18:01;;;;;;;;;;;15.60;86.80;;;;;;5094281;28;19985;-70
2021/06/17 04:20:33;;;;;;;;;;;15.50;86.90;;;;;;5094149;28;19999;-70
2021/06/17 04:23:00;;;;;;;;;;;15.60;87.90;;;;;;5093838;28;19908;-70
2021/06/17 04:25:28;;;;;;;;;;;15.60;87.20;;;;;;5093687;28;20007;-71
2021/06/17 04:27:59;;;;;;;;;;;15.60;85.00;;;;;;5093425;28;20364;-69
2021/06/17 04:30:30;;;;;;;;;;;15.60;85.50;;;;;;5093616;28;19928;-71
2021/06/17 04:32:57;;;;;;;;;;;15.60;84.70;;;;;;5092843;28;19915;-71
2021/06/17 04:35:25;;;;;;;;;;;15.60;86.30;;;;;;5093629;28;20007;-71
2021/06/17 04:37:52;;;;;;;;;;;15.70;84.30;;;;;;5093521;28;19912;-70
2021/06/17 04:40:20;;;;;;;;;;;15.70;84.50;;;;;;5093279;28;19915;-70
2021/06/17 04:42:48;;;;;;;;;;;15.70;86.80;;;;;;5093391;28;19947;-69
2021/06/17 04:45:15;;;;;;;;;;;15.60;85.60;;;;;;5093441;28;20259;-70
2021/06/17 04:47:48;;;;;;;;;;;15.60;84.50;;;;;;5093063;28;19944;-70
2021/06/17 04:50:16;;;;;;;;;;;15.60;86.60;;;;;;5093490;28;19916;-70
2021/06/17 04:53:04;;;;;;;;;;;15.60;84.60;;;;;;5093507;28;19950;-70
2021/06/17 04:55:31;;;;;;;;;;;15.70;86.00;;;;;;5092730;28;20371;-69
2021/06/17 04:57:57;;;;;;;;;;;15.60;87.80;;;;;;5093423;28;19917;-69
2021/06/17 05:00:24;;;;;;;;;;;15.50;85.30;;;;;;5093253;28;20277;-70
2021/06/17 05:02:51;;;;;;;;;;;15.50;86.60;;;;;;5091918;28;20293;-70
2021/06/17 05:05:17;;;;;;;;;;;15.60;87.00;;;;;;5093393;28;19920;-69
2021/06/17 05:12:56;;;;;;;;;;;15.50;86.60;;;;;;5093246;28;19926;-71
2021/06/17 05:15:23;;;;;;;;;;;15.40;87.00;;;;;;5092900;28;19999;-71
2021/06/17 05:17:50;;;;;;;;;;;15.40;88.00;;;;;;5092794;28;19980;-70
2021/06/17 05:20:17;;;;;;;;;;;15.40;88.00;;;;;;5093085;28;19908;-71
2021/06/17 05:22:44;;;;;;;;;;;15.40;89.20;;;;;;5091869;28;20282;-69
2021/06/17 05:25:12;;;;;;;;;;;15.40;87.60;;;;;;5093035;28;20358;-70
2021/06/17 05:27:39;;;;;;;;;;;15.40;87.00;;;;;;5092933;28;19916;-71
2021/06/17 05:30:07;;;;;;;;;;;15.40;87.50;;;;;;5092917;28;19923;-70
2021/06/17 05:32:34;;;;;;;;;;;15.40;88.10;;;;;;5092918;28;19908;-69
2021/06/17 05:35:00;;;;;;;;;;;15.30;90.00;;;;;;5092987;28;19909;-70
2021/06/17 05:37:27;;;;;;;;;;;15.30;88.80;;;;;;5093027;28;19969;-69
2021/06/17 05:39:54;;;;;;;;;;;15.30;88.30;;;;;;5092681;28;19908;-69
2021/06/17 05:42:21;;;;;;;;;;;15.30;90.00;;;;;;5092962;28;19912;-68
2021/06/17 05:44:47;;;;;;;;;;;15.30;88.70;;;;;;5094085;28;19915;-70
2021/06/17 05:47:14;;;;;;;;;;;15.30;90.30;;;;;;5096790;28;19955;-70
2021/06/17 05:49:40;;;;;;;;;;;15.30;88.90;;;;;;5096560;28;20207;-69
2021/06/17 05:52:07;;;;;;;;;;;15.20;89.00;;;;;;5096810;28;19908;-69
2021/06/17 05:54:34;;;;;;;;;;;15.20;89.80;;;;;;5096532;28;19908;-69
2021/06/17 05:57:00;;;;;;;;;;;15.10;90.60;;;;;;5096598;28;20373;-69
2021/06/17 05:59:27;;;;;;;;;;;15.10;90.10;;;;;;5096472;28;20307;-70
2021/06/17 06:01:54;;;;;;;;;;;15.10;90.10;;;;;;5096261;28;19930;-70
2021/06/17 06:04:20;;;;;;;;;;;15.10;90.10;;;;;;5096090;28;20007;-69
2021/06/17 06:06:47;;;;;;;;;;;15.00;90.00;;;;;;5095160;28;19930;-69
2021/06/17 06:09:14;;;;;;;;;;;15.00;90.60;;;;;;5096221;28;20389;-69
2021/06/17 06:11:40;;;;;;;;;;;14.90;90.70;;;;;;5095956;28;19958;-70
2021/06/17 06:14:07;;;;;;;;;;;14.90;90.60;;;;;;5096241;28;19917;-70
2021/06/17 06:16:36;;;;;;;;;;;14.80;91.00;;;;;;5096177;28;19976;-70
2021/06/17 06:19:06;;;;;;;;;;;14.80;91.20;;;;;;5096242;28;20024;-71
2021/06/17 06:21:33;;;;;;;;;;;14.80;91.40;;;;;;5095701;28;19915;-71
2021/06/17 06:24:00;;;;;;;;;;;14.70;90.90;;;;;;5095924;28;19915;-70
2021/06/17 06:26:26;;;;;;;;;;;14.70;92.10;;;;;;5096147;28;19914;-70
2021/06/17 06:28:53;;;;;;;;;;;14.70;91.20;;;;;;5096012;28;19998;-71
2021/06/17 06:31:20;;;;;;;;;;;14.60;91.40;;;;;;5096129;28;19912;-71
2021/06/17 06:33:46;;;;;;;;;;;14.60;92.60;;;;;;5095463;28;19958;-71
2021/06/17 06:36:13;;;;;;;;;;;14.60;91.60;;;;;;5095747;28;20331;-70
2021/06/17 06:38:40;;;;;;;;;;;14.60;92.20;;;;;;5095786;28;19915;-70
2021/06/17 06:41:06;;;;;;;;;;;14.60;92.50;;;;;;5095858;28;20294;-70
2021/06/17 06:43:33;;;;;;;;;;;14.60;91.80;;;;;;5095495;28;19919;-70
2021/06/17 06:45:59;;;;;;;;;;;14.50;92.70;;;;;;5095587;28;19908;-70
2021/06/17 06:48:26;;;;;;;;;;;14.50;91.80;;;;;;5095517;28;20375;-71
2021/06/17 06:50:53;;;;;;;;;;;14.50;91.60;;;;;;5095615;28;19916;-71
2021/06/17 06:53:20;;;;;;;;;;;14.50;93.50;;;;;;5087040;28;19908;-70
2021/06/17 06:55:47;;;;;;;;;;;14.50;92.30;;;;;;5074075;28;19909;-70
2021/06/17 06:58:14;;;;;;;;;;;14.50;92.90;;;;;;5074944;28;19931;-70
2021/06/17 07:00:43;;;;;;;;;;;14.50;92.40;;;;;;5075218;28;20415;-70
2021/06/17 07:03:11;;;;;;;;;;;14.40;93.00;;;;;;5075163;28;19909;-70
2021/06/17 07:05:37;;;;;;;;;;;14.40;92.80;;;;;;5074439;28;19916;-70
2021/06/17 07:08:09;;;;;;;;;;;14.40;92.90;;;;;;5074460;28;19908;-70
2021/06/17 07:10:43;;;;;;;;;;;14.40;93.10;;;;;;5074821;28;20385;-70
2021/06/17 07:13:11;;;;;;;;;;;14.30;93.40;;;;;;5074915;28;19981;-70
2021/06/17 07:15:38;;;;;;;;;;;14.30;92.90;;;;;;5074115;28;20394;-70
2021/06/17 07:18:05;;;;;;;;;;;14.30;92.70;;;;;;5075360;28;20262;-70
2021/06/17 07:20:31;;;;;;;;;;;14.40;93.40;;;;;;5074777;28;19913;-71
2021/06/17 07:22:58;;;;;;;;;;;14.30;93.40;;;;;;5074408;28;20021;-70
2021/06/17 07:25:26;;;;;;;;;;;14.30;93.50;;;;;;5074286;28;19919;-71
2021/06/17 07:27:53;;;;;;;;;;;14.30;93.50;;;;;;5074617;28;20279;-71
2021/06/17 07:30:20;;;;;;;;;;;14.30;93.20;;;;;;5074688;28;20011;-71
2021/06/17 07:32:47;;;;;;;;;;;14.30;93.90;;;;;;5074448;28;19995;-71
2021/06/17 07:35:14;;;;;;;;;;;14.30;93.80;;;;;;5074517;28;19916;-70
2021/06/17 07:37:41;;;;;;;;;;;14.30;93.40;;;;;;5074223;28;19946;-70
2021/06/17 07:40:09;;;;;;;;;;;14.30;93.70;;;;;;5072713;28;19915;-69
2021/06/17 07:42:35;;;;;;;;;;;14.30;94.20;;;;;;5072327;28;19991;-71
2021/06/17 07:45:03;;;;;;;;;;;14.20;94.10;;;;;;5072386;28;19909;-71
2021/06/17 07:47:29;;;;;;;;;;;14.20;93.90;;;;;;5072342;28;19931;-69
2021/06/17 07:49:56;;;;;;;;;;;14.20;94.10;;;;;;5072161;28;19917;-69
2021/06/17 07:52:23;;;;;;;;;;;14.20;94.10;;;;;;5071976;28;20011;-70
2021/06/17 07:54:50;;;;;;;;;;;14.10;94.10;;;;;;5071544;28;20337;-71
2021/06/17 07:57:16;;;;;;;;;;;14.10;94.10;;;;;;5071938;28;19931;-70
2021/06/17 07:59:43;;;;;;;;;;;14.10;93.80;;;;;;5071634;28;19950;-70
2021/06/17 08:02:10;;;;;;;;;;;14.10;94.20;;;;;;5071833;28;19916;-69
2021/06/17 08:04:36;;;;;;;;;;;14.10;94.50;;;;;;5071702;28;19912;-69
2021/06/17 08:07:03;;;;;;;;;;;14.10;94.30;;;;;;5071384;28;19915;-69
2021/06/17 08:09:30;;;;;;;;;;;14.10;95.10;;;;;;5071548;28;19913;-70
2021/06/17 08:11:56;;;;;;;;;;;14.10;94.10;;;;;;5071535;28;19973;-70
2021/06/17 08:14:28;;;;;;;;;;;14.10;94.20;;;;;;5071575;28;20358;-69
2021/06/17 08:16:56;;;;;;;;;;;14.10;94.60;;;;;;5071674;28;19935;-70
2021/06/17 08:19:29;;;;;;;;;;;14.10;93.80;;;;;;5071165;28;19913;-69
2021/06/17 08:22:02;;;;;;;;;;;14.20;94.60;;;;;;5071568;28;20259;-70
2021/06/17 08:24:29;;;;;;;;;;;14.10;94.00;;;;;;5071331;28;19909;-70
2021/06/17 08:26:56;;;;;;;;;;;14.10;93.80;;;;;;5071545;28;19912;-69
2021/06/17 08:29:22;;;;;;;;;;;14.10;94.40;;;;;;5071260;28;20282;-70
2021/06/17 08:31:49;;;;;;;;;;;14.10;93.50;;;;;;5071202;28;19920;-69
2021/06/17 08:34:16;;;;;;;;;;;14.10;94.60;;;;;;5069658;28;19985;-69
2021/06/17 08:36:42;;;;;;;;;;;14.10;94.70;;;;;;5071216;28;19908;-70
2021/06/17 08:39:09;;;;;;;;;;;14.10;94.20;;;;;;5071184;28;19909;-70
2021/06/17 08:41:36;;;;;;;;;;;14.10;94.20;;;;;;5070966;28;19908;-69
2021/06/17 08:44:03;;;;;;;;;;;14.10;94.30;;;;;;5071280;28;20312;-70
2021/06/17 08:46:30;;;;;;;;;;;14.10;94.50;;;;;;5070980;28;19920;-69
2021/06/17 08:48:56;;;;;;;;;;;14.10;94.30;;;;;;5071312;28;19909;-70
2021/06/17 08:51:23;;;;;;;;;;;14.00;95.00;;;;;;5070955;28;19919;-70
2021/06/17 08:53:50;;;;;;;;;;;14.00;95.60;;;;;;5070722;28;19920;-70
2021/06/17 08:56:17;;;;;;;;;;;13.90;95.00;;;;;;5071194;28;19913;-69
2021/06/17 08:58:45;;;;;;;;;;;13.90;95.00;;;;;;5070703;28;19920;-70
2021/06/17 09:01:13;;;;;;;;;;;13.90;95.50;;;;;;5070967;28;20003;-70
2021/06/17 09:03:41;;;;;;;;;;;13.90;96.00;;;;;;5070979;28;19915;-70
2021/06/17 09:06:08;;;;;;;;;;;13.80;95.00;;;;;;5072304;28;19908;-69
2021/06/17 09:08:35;;;;;;;;;;;13.70;95.80;;;;;;5073026;28;19908;-69
2021/06/17 09:11:16;;;;;;;;;;;13.80;96.00;;;;;;5072963;28;19920;-69
2021/06/17 09:13:43;;;;;;;;;;;13.80;95.40;;;;;;5072663;28;19956;-69
2021/06/17 09:16:21;;;;;;;;;;;13.80;95.90;;;;;;5073133;28;19961;-70
2021/06/17 09:18:47;;;;;;;;;;;13.80;95.90;;;;;;5073004;28;19914;-68
2021/06/17 09:21:14;;;;;;;;;;;13.70;95.80;;;;;;5076754;28;19908;-70
2021/06/17 09:23:42;;;;;;;;;;;13.80;95.20;;;;;;5076748;28;20341;-69
2021/06/17 09:26:19;;;;;;;;;;;13.80;95.20;;;;;;5076992;28;19915;-70
2021/06/17 09:28:48;;;;;;;;;;;13.80;95.20;;;;;;5076994;28;20317;-69
2021/06/17 09:31:25;;;;;;;;;;;13.70;95.20;;;;;;5076890;28;19916;-69
2021/06/17 09:33:52;;;;;;;;;;;13.70;95.90;;;;;;5076808;28;19948;-70
2021/06/17 09:36:23;;;;;;;;;;;13.60;95.30;;;;;;5076846;28;20274;-70
2021/06/17 09:38:51;;;;;;;;;;;13.60;96.30;;;;;;5076606;28;19909;-69
2021/06/17 09:41:36;;;;;;;;;;;13.60;96.30;;;;;;5076699;28;19908;-70
2021/06/17 09:44:04;;;;;;;;;;;13.50;95.90;;;;;;5076628;28;20001;-69
2021/06/17 09:46:31;;;;;;;;;;;13.50;96.00;;;;;;5076375;28;19912;-70
2021/06/17 09:49:05;;;;;;;;;;;13.40;96.20;;;;;;5076519;28;19908;-68
2021/06/17 09:51:42;;;;;;;;;;;13.40;96.40;;;;;;5076405;28;19918;-69
2021/06/17 09:54:21;;;;;;;;;;;13.40;96.50;;;;;;5076298;28;19909;-68
2021/06/17 09:56:49;;;;;;;;;;;13.40;96.60;;;;;;5075891;28;19908;-70
2021/06/17 09:59:32;;;;;;;;;;;13.30;96.60;;;;;;5076204;28;20266;-70
2021/06/17 10:01:59;;;;;;;;;;;13.30;96.70;;;;;;5076210;28;19908;-70
2021/06/17 10:04:26;;;;;;;;;;;13.30;97.00;;;;;;5076240;28;19991;-70
2021/06/17 10:06:53;;;;;;;;;;;13.30;97.30;;;;;;5076224;28;19931;-70
2021/06/17 10:09:20;;;;;;;;;;;13.30;97.60;;;;;;5075893;28;20026;-70
2021/06/17 10:11:47;;;;;;;;;;;13.30;97.30;;;;;;5075069;28;19909;-70
2021/06/17 10:14:14;;;;;;;;;;;13.20;97.90;;;;;;5075886;28;20368;-70
2021/06/17 10:16:44;;;;;;;;;;;13.20;97.80;;;;;;5076008;28;20383;-70
2021/06/17 10:19:11;;;;;;;;;;;13.20;97.70;;;;;;5076013;28;20052;-70
2021/06/17 10:21:38;;;;;;;;;;;13.20;97.90;;;;;;5075777;28;19916;-69
2021/06/17 10:24:15;;;;;;;;;;;13.20;97.90;;;;;;5075656;28;19978;-71
2021/06/17 10:26:44;;;;;;;;;;;13.30;98.40;;;;;;5075266;28;19909;-69
2021/06/17 10:29:30;;;;;;;;;;;13.30;97.90;;;;;;5075753;28;20278;-68
2021/06/17 10:32:01;;;;;;;;;;;13.30;97.80;;;;;;5063589;28;19915;-68
2021/06/17 10:34:30;;;;;;;;;;;13.30;98.20;;;;;;5075849;28;19914;-68
2021/06/17 10:37:12;;;;;;;;;;;13.20;97.60;;;;;;5075594;28;20358;-69
2021/06/17 10:39:39;;;;;;;;;;;13.20;97.50;;;;;;5075462;28;19950;-69
2021/06/17 10:42:05;;;;;;;;;;;13.30;97.80;;;;;;5075134;28;20362;-69
2021/06/17 10:44:41;;;;;;;;;;;13.30;97.70;;;;;;5075549;28;19932;-70
2021/06/17 10:47:08;;;;;;;;;;;13.20;97.50;;;;;;5075461;28;19908;-69
2021/06/17 10:49:50;;;;;;;;;;;13.20;97.80;;;;;;5075132;28;20011;-69
2021/06/17 10:52:23;;;;;;;;;;;13.20;97.60;;;;;;5075338;28;19913;-70
2021/06/17 10:55:00;;;;;;;;;;;13.10;97.80;;;;;;5075266;28;20282;-70
2021/06/17 10:57:45;;;;;;;;;;;13.10;98.30;;;;;;5074922;28;19959;-69
2021/06/17 11:00:25;;;;;;;;;;;13.10;97.70;;;;;;5075124;28;19908;-70
2021/06/17 11:02:58;;;;;;;;;;;13.10;97.80;;;;;;5075302;28;19912;-68
2021/06/17 11:05:47;;;;;;;;;;;13.20;98.00;;;;;;5075093;28;19909;-70
2021/06/17 11:08:19;;;;;;;;;;;13.10;98.40;;;;;;5065449;28;19991;-71
2021/06/17 11:10:49;;;;;;;;;;;13.20;98.00;;;;;;5074524;28;19916;-70
2021/06/17 11:13:34;;;;;;;;;;;13.20;98.30;;;;;;5074890;28;19964;-71
2021/06/17 11:16:20;;;;;;;;;;;13.30;98.40;;;;;;5073615;28;20283;-70
2021/06/17 11:18:49;;;;;;;;;;;13.30;98.30;;;;;;5064367;28;19926;-70
2021/06/17 11:21:26;;;;;;;;;;;13.30;97.70;;;;;;5074664;28;19915;-68
2021/06/17 11:23:52;;;;;;;;;;;13.30;98.00;;;;;;5074473;28;19908;-70
2021/06/17 11:26:44;;;;;;;;;;;13.30;98.00;;;;;;5074052;28;19935;-69
2021/06/17 11:29:20;;;;;;;;;;;13.20;98.20;;;;;;5074721;28;19962;-70
2021/06/17 11:31:50;;;;;;;;;;;13.20;98.10;;;;;;5074323;28;20377;-69
2021/06/17 11:34:29;;;;;;;;;;;13.20;98.30;;;;;;5074569;28;19909;-69
2021/06/17 11:36:57;;;;;;;;;;;13.20;98.40;;;;;;5074224;28;19954;-68
2021/06/17 11:39:25;;;;;;;;;;;13.20;98.30;;;;;;5074429;28;19909;-70
2021/06/17 11:41:52;;;;;;;;;;;13.20;98.00;;;;;;5073508;28;19999;-70
2021/06/17 11:44:24;;;;;;;;;;;13.10;98.30;;;;;;5074260;28;19909;-69
2021/06/17 11:46:52;;;;;;;;;;;13.20;98.10;;;;;;5074340;28;19908;-70
2021/06/17 11:49:19;;;;;;;;;;;13.10;98.40;;;;;;5074092;28;19923;-69
2021/06/17 11:51:47;;;;;;;;;;;13.20;97.80;;;;;;5073812;28;19913;-70
2021/06/17 11:54:25;;;;;;;;;;;13.20;97.80;;;;;;5072750;28;19916;-70
2021/06/17 11:56:52;;;;;;;;;;;13.20;98.20;;;;;;5073823;28;19913;-71
2021/06/17 11:59:30;;;;;;;;;;;13.20;97.20;;;;;;5072818;28;20286;-70
2021/06/17 12:02:18;;;;;;;;;;;13.20;97.30;;;;;;5074213;28;19912;-68
2021/06/17 12:04:56;;;;;;;;;;;13.30;97.60;;;;;;5074171;28;19962;-69
2021/06/17 12:07:28;;;;;;;;;;;13.30;97.90;;;;;;5074080;28;19916;-70
2021/06/17 12:09:56;;;;;;;;;;;13.20;98.10;;;;;;5081295;28;19939;-70
2021/06/17 12:12:24;;;;;;;;;;;13.20;97.70;;;;;;5080345;28;19920;-69
2021/06/17 12:14:57;;;;;;;;;;;13.20;98.10;;;;;;5073777;28;20379;-69
2021/06/17 12:17:26;;;;;;;;;;;13.20;98.00;;;;;;5074027;28;20008;-69
2021/06/17 12:19:54;;;;;;;;;;;13.20;97.90;;;;;;5073578;28;19920;-69
2021/06/17 12:22:21;;;;;;;;;;;13.20;97.60;;;;;;5073443;28;19909;-68
2021/06/17 12:24:47;;;;;;;;;;;13.20;97.20;;;;;;5073138;28;19982;-69
2021/06/17 12:27:14;;;;;;;;;;;13.20;97.90;;;;;;5073360;28;19959;-68
2021/06/17 12:29:41;;;;;;;;;;;13.20;97.40;;;;;;5072085;28;19920;-69
2021/06/17 12:32:07;;;;;;;;;;;13.20;97.40;;;;;;5073518;28;19908;-69
2021/06/17 12:34:42;;;;;;;;;;;13.20;97.30;;;;;;5073583;28;20012;-69
2021/06/17 12:37:11;;;;;;;;;;;13.20;97.00;;;;;;5073255;28;20333;-68
2021/06/17 12:39:39;;;;;;;;;;;13.20;97.00;;;;;;5072539;28;19915;-70
2021/06/17 12:42:10;;;;;;;;;;;13.20;96.40;;;;;;5073581;28;19908;-68
2021/06/17 12:44:39;;;;;;;;;;;13.10;96.50;;;;;;5073338;28;20007;-69
2021/06/17 12:47:10;;;;;;;;;;;13.10;96.90;;;;;;5073434;28;19909;-69
2021/06/17 12:52:02;;;;;;;;;;;13.10;96.40;;;;;;5073067;28;19924;-68
2021/06/17 12:52:57;;;;;;;;;;;13.10;96.80;;;;;;5028505;28;19916;-70
2021/06/17 12:55:34;;;;;;;;;;;13.10;96.70;;;;;;5072009;28;20381;-70
2021/06/17 12:58:00;;;;;;;;;;;13.00;96.50;;;;;;5073366;28;19958;-70
2021/06/17 13:00:27;;;;;;;;;;;13.00;96.30;;;;;;5073174;28;20276;-70
2021/06/17 13:02:54;;;;;;;;;;;13.00;97.00;;;;;;5073249;28;19908;-69
2021/06/17 13:05:22;;;;;;;;;;;13.00;96.50;;;;;;5073323;28;19932;-70
2021/06/17 13:07:59;;;;;;;;;;;13.00;96.70;;;;;;5072872;28;20385;-70
2021/06/17 13:10:27;;;;;;;;;;;13.00;96.70;;;;;;5072545;28;19924;-70
2021/06/17 13:13:12;;;;;;;;;;;12.90;97.30;;;;;;5072816;28;20397;-70
2021/06/17 13:15:38;;;;;;;;;;;12.90;96.30;;;;;;5072376;28;19908;-70
2021/06/17 13:18:06;;;;;;;;;;;13.00;97.00;;;;;;5072960;28;19928;-70
2021/06/17 13:20:37;;;;;;;;;;;12.90;96.60;;;;;;5073020;28;19920;-69
2021/06/17 13:23:10;;;;;;;;;;;12.90;96.40;;;;;;5072988;28;20035;-68
2021/06/17 13:25:37;;;;;;;;;;;13.00;96.90;;;;;;5072728;28;20428;-69
2021/06/17 13:28:05;;;;;;;;;;;13.00;96.60;;;;;;5072858;28;20369;-68
2021/06/17 13:30:33;;;;;;;;;;;13.00;96.80;;;;;;5072765;28;19916;-69
2021/06/17 13:33:02;;;;;;;;;;;12.90;96.40;;;;;;5071886;28;19909;-69
2021/06/17 13:35:29;;;;;;;;;;;12.90;96.50;;;;;;5072917;28;20004;-68
2021/06/17 13:37:55;;;;;;;;;;;12.90;96.20;;;;;;5072541;28;19962;-68
2021/06/17 13:40:22;;;;;;;;;;;12.90;96.20;;;;;;5068328;28;19978;-68
2021/06/17 13:42:56;;;;;;;;;;;12.90;96.30;;;;;;5072732;28;19915;-69
2021/06/17 13:45:23;;;;;;;;;;;12.90;96.30;;;;;;5072634;28;19962;-69
2021/06/17 13:47:51;;;;;;;;;;;12.90;95.70;;;;;;5072553;28;19908;-69
2021/06/17 13:50:18;;;;;;;;;;;12.90;96.00;;;;;;5071828;28;20031;-68
2021/06/17 13:52:44;;;;;;;;;;;12.90;96.10;;;;;;5072491;28;19917;-69
2021/06/17 13:55:18;;;;;;;;;;;13.00;96.30;;;;;;5072649;28;20266;-69
2021/06/17 13:57:45;;;;;;;;;;;12.90;95.90;;;;;;5072529;28;19909;-69
2021/06/17 14:00:13;;;;;;;;;;;13.00;96.00;;;;;;5071505;28;20007;-69
2021/06/17 14:02:41;;;;;;;;;;;12.90;95.70;;;;;;5072598;28;19916;-70
2021/06/17 14:05:08;;;;;;;;;;;12.90;95.80;;;;;;5072660;28;20343;-69
2021/06/17 14:07:35;;;;;;;;;;;13.00;95.80;;;;;;5076133;28;20287;-69
2021/06/17 14:10:03;;;;;;;;;;;13.00;96.10;;;;;;5076179;28;20355;-69
2021/06/17 14:12:29;;;;;;;;;;;13.00;95.80;;;;;;5075780;28;20414;-69
2021/06/17 14:14:58;;;;;;;;;;;12.90;96.20;;;;;;5076049;28;19938;-69
2021/06/17 14:17:24;;;;;;;;;;;13.00;95.70;;;;;;5076105;28;19919;-68
2021/06/17 14:19:51;;;;;;;;;;;12.90;96.30;;;;;;5075891;28;19923;-68
2021/06/17 14:22:18;;;;;;;;;;;12.90;96.40;;;;;;5075813;28;20077;-69
2021/06/17 14:24:45;;;;;;;;;;;12.90;96.40;;;;;;5075962;28;19915;-70
2021/06/17 14:27:11;;;;;;;;;;;12.80;97.20;;;;;;5076032;28;20286;-70
2021/06/17 14:29:38;;;;;;;;;;;12.80;97.20;;;;;;5075700;28;19917;-70
2021/06/17 14:32:05;;;;;;;;;;;12.70;97.40;;;;;;5075792;28;19947;-70
2021/06/17 14:34:31;;;;;;;;;;;12.70;97.10;;;;;;5075848;28;19987;-69